NK55 weather

Onondaga County Sheriff's Department Heliport
Camillus, New York, United States

Public forecast

Using degrees Fahrenheit for public forecast. Weather courtesy of forecast.io.

METAR (pilot weather report)

Closest report is Syracuse Hancock International Airport, 8.1 nm (15.0 km) E. Retrieved 2019/07/19 14:54 UTC (51 minutes ago):

KSYR 191454Z 27008KT 10SM SCT030 BKN042 BKN049 30/22 A2985 RMK AO2 CIG 035 NW SLP101 T03000222 51006

TAF (pilot weather forecast)

Closest forecast is Syracuse Hancock International Airport, 8.1 nm (15.0 km) E. Retrieved 2019/07/19 12:24 UTC (3 hours ago):

TAF KSYR 191122Z 1912/2012 VRB03KT P6SM FEW050 SCT200 FM191400 22006KT P6SM SCT060 BKN120 FM191700 25008KT P6SM BKN050 FM200400 24004KT P6SM BKN060